Time;durP1;ratioP1;P1;durP2;ratioP2;P2;SDS_P1;SDS_P2;PMS_P1;PMS_P2;Temp;Humidity;BMP_temperature;BMP_pressure;BME280_temperature;BME280_humidity;BME280_pressure;Samples;Min_cycle;Max_cycle;Signal;HPM_P1;HPM_P2
2023/09/07 00:02:17;;;;;;;6.80;2.72;;;20.50;99.20;;;;;;5092512;28;20061;-70
2023/09/07 00:04:43;;;;;;;8.27;2.95;;;20.40;99.50;;;;;;5092071;28;20109;-68
2023/09/07 00:07:09;;;;;;;5.65;3.40;;;20.40;99.60;;;;;;5091596;28;20024;-69
2023/09/07 00:09:34;;;;;;;7.53;3.30;;;20.30;99.80;;;;;;5092934;28;20023;-69
2023/09/07 00:12:00;;;;;;;8.77;3.03;;;20.30;99.80;;;;;;5091095;28;20093;-69
2023/09/07 00:14:26;;;;;;;4.75;2.83;;;20.30;99.80;;;;;;5092077;28;20032;-70
2023/09/07 00:16:51;;;;;;;6.22;2.90;;;20.30;99.80;;;;;;5092011;28;20063;-70
2023/09/07 00:19:17;;;;;;;7.97;3.55;;;20.20;99.90;;;;;;5092184;28;20028;-69
2023/09/07 00:21:42;;;;;;;6.53;2.78;;;20.20;99.90;;;;;;5092662;28;20028;-68
2023/09/07 00:24:09;;;;;;;4.65;3.03;;;20.30;99.80;;;;;;5091932;28;20498;-69
2023/09/07 00:26:35;;;;;;;8.60;3.42;;;20.30;99.80;;;;;;5091025;28;20408;-69
2023/09/07 00:29:00;;;;;;;4.40;2.70;;;20.20;99.80;;;;;;5091708;28;20039;-70
2023/09/07 00:31:26;;;;;;;8.02;2.88;;;20.10;99.90;;;;;;5092081;28;20453;-69
2023/09/07 00:33:52;;;;;;;4.53;3.05;;;20.00;99.90;;;;;;5091673;28;20112;-68
2023/09/07 00:36:18;;;;;;;7.28;2.90;;;20.10;99.90;;;;;;5092178;28;20250;-70
2023/09/07 00:38:44;;;;;;;5.45;3.38;;;20.00;99.90;;;;;;5091914;28;20024;-70
2023/09/07 00:41:09;;;;;;;7.70;3.50;;;19.90;99.90;;;;;;5091783;28;20335;-70
2023/09/07 00:43:35;;;;;;;5.28;3.15;;;19.90;99.90;;;;;;5090513;28;20062;-69
2023/09/07 00:46:01;;;;;;;5.97;3.22;;;20.00;99.90;;;;;;5091616;28;20048;-70
2023/09/07 00:48:26;;;;;;;9.98;3.95;;;20.00;99.90;;;;;;5091857;28;20052;-67
2023/09/07 00:50:52;;;;;;;6.07;3.35;;;19.90;99.90;;;;;;5091639;28;20514;-68
2023/09/07 00:53:37;;;;;;;8.85;3.95;;;19.80;99.90;;;;;;5090385;28;20051;-68
2023/09/07 00:56:03;;;;;;;6.50;3.25;;;20.00;99.90;;;;;;5091522;28;20394;-68
2023/09/07 00:58:47;;;;;;;8.30;3.47;;;19.80;99.90;;;;;;5091640;28;20093;-70
2023/09/07 01:01:13;;;;;;;8.38;3.55;;;19.70;99.90;;;;;;5091351;28;20048;-70
2023/09/07 01:03:39;;;;;;;5.65;3.70;;;19.70;99.90;;;;;;5091756;28;20051;-68
2023/09/07 01:06:17;;;;;;;7.30;3.40;;;19.70;99.90;;;;;;5091241;28;20123;-69
2023/09/07 01:08:47;;;;;;;6.10;3.80;;;19.80;99.90;;;;;;5091399;28;20050;-69
2023/09/07 01:11:26;;;;;;;7.90;3.58;;;19.80;99.90;;;;;;5090917;28;20060;-69
2023/09/07 01:13:55;;;;;;;6.45;3.80;;;19.70;99.90;;;;;;5091142;28;20036;-69
2023/09/07 01:16:23;;;;;;;5.65;3.50;;;19.70;99.90;;;;;;5091313;28;20127;-69
2023/09/07 01:18:49;;;;;;;9.02;3.55;;;19.60;99.90;;;;;;5091389;28;20103;-69
2023/09/07 01:21:15;;;;;;;7.47;3.90;;;19.60;99.90;;;;;;5090134;28;20164;-69
2023/09/07 01:23:43;;;;;;;7.22;3.60;;;19.50;99.90;;;;;;5090918;28;20028;-69
2023/09/07 01:26:09;;;;;;;6.30;3.42;;;19.60;99.90;;;;;;5090489;28;20094;-69
2023/09/07 01:28:37;;;;;;;7.85;3.50;;;19.50;99.90;;;;;;5090743;28;20422;-69
2023/09/07 01:31:02;;;;;;;6.53;3.80;;;19.50;99.90;;;;;;5090750;28;20327;-69
2023/09/07 01:33:28;;;;;;;9.25;4.03;;;19.50;99.90;;;;;;5091748;28;20047;-69
2023/09/07 01:35:54;;;;;;;5.65;3.30;;;19.50;99.90;;;;;;5079989;28;20056;-69
2023/09/07 01:38:19;;;;;;;7.85;3.40;;;19.40;99.90;;;;;;5070609;28;20370;-69
2023/09/07 01:40:45;;;;;;;10.63;4.00;;;19.50;99.90;;;;;;5070704;28;20036;-69
2023/09/07 01:43:11;;;;;;;8.05;3.30;;;19.50;99.90;;;;;;5070540;28;20124;-69
2023/09/07 01:45:37;;;;;;;5.78;3.15;;;19.40;99.90;;;;;;5071764;28;20107;-69
2023/09/07 01:48:03;;;;;;;7.80;3.80;;;19.30;99.90;;;;;;5070836;28;20032;-69
2023/09/07 01:50:29;;;;;;;6.20;3.22;;;19.30;99.90;;;;;;5070956;28;20048;-69
2023/09/07 01:52:54;;;;;;;7.72;3.63;;;19.30;99.90;;;;;;5070494;28;20142;-69
2023/09/07 01:55:20;;;;;;;6.32;3.97;;;19.10;99.90;;;;;;5070326;28;20048;-69
2023/09/07 01:57:45;;;;;;;7.05;3.60;;;19.10;99.90;;;;;;5070226;28;20329;-69
2023/09/07 02:00:12;;;;;;;10.70;4.30;;;19.10;99.90;;;;;;5070465;28;20052;-69
2023/09/07 02:02:38;;;;;;;10.02;3.97;;;19.10;99.90;;;;;;5070464;28;20319;-70
2023/09/07 02:05:04;;;;;;;5.85;3.70;;;19.10;99.90;;;;;;5070291;28;20057;-69
2023/09/07 02:07:29;;;;;;;8.68;3.53;;;19.00;99.90;;;;;;5069342;28;20358;-70
2023/09/07 02:09:55;;;;;;;6.70;4.10;;;19.00;99.90;;;;;;5070381;28;20024;-70
2023/09/07 02:12:21;;;;;;;6.60;3.53;;;19.00;99.90;;;;;;5070713;28;20032;-69
2023/09/07 02:14:46;;;;;;;7.07;3.90;;;19.00;99.90;;;;;;5069417;28;20032;-70
2023/09/07 02:17:17;;;;;;;7.85;4.68;;;18.90;99.90;;;;;;5070945;28;20060;-68
2023/09/07 02:19:43;;;;;;;7.88;4.57;;;18.90;99.90;;;;;;5070066;28;20060;-68
2023/09/07 02:22:09;;;;;;;6.57;3.67;;;18.90;99.90;;;;;;5069245;28;20363;-68
2023/09/07 02:24:35;;;;;;;12.23;4.45;;;18.80;99.90;;;;;;5070677;28;20075;-69
2023/09/07 02:27:00;;;;;;;8.25;4.55;;;18.90;99.90;;;;;;5070212;28;20124;-69
2023/09/07 02:29:26;;;;;;;6.80;4.40;;;18.80;99.90;;;;;;5070378;28;20102;-70
2023/09/07 02:31:52;;;;;;;7.50;4.13;;;18.80;99.90;;;;;;5070213;28;20362;-70
2023/09/07 02:34:18;;;;;;;9.35;4.45;;;18.80;99.90;;;;;;5070567;28;20039;-69
2023/09/07 02:36:44;;;;;;;10.27;4.75;;;18.80;99.90;;;;;;5070514;28;20036;-70
2023/09/07 02:39:11;;;;;;;7.40;4.10;;;18.80;99.90;;;;;;5073025;28;20035;-70
2023/09/07 02:41:38;;;;;;;7.93;4.45;;;18.80;99.90;;;;;;5074021;28;20025;-70
2023/09/07 02:44:04;;;;;;;11.20;4.45;;;18.80;99.90;;;;;;5073738;28;20040;-70
2023/09/07 02:46:29;;;;;;;7.25;4.53;;;18.70;99.90;;;;;;5073695;28;20028;-69
2023/09/07 02:48:58;;;;;;;10.65;4.90;;;18.70;99.90;;;;;;5072611;28;20098;-69
2023/09/07 02:51:24;;;;;;;11.00;4.68;;;18.70;99.90;;;;;;5074037;28;20019;-69
2023/09/07 02:53:50;;;;;;;10.27;5.03;;;18.70;99.90;;;;;;5073865;28;20421;-69
2023/09/07 02:56:16;;;;;;;7.93;4.68;;;18.80;99.90;;;;;;5073504;28;20021;-69
2023/09/07 02:58:42;;;;;;;9.52;4.60;;;18.70;99.90;;;;;;5073633;28;20081;-69
2023/09/07 03:01:11;;;;;;;8.90;4.70;;;18.80;99.90;;;;;;5073371;28;20029;-70
2023/09/07 03:03:37;;;;;;;8.90;4.53;;;18.70;99.90;;;;;;5074008;28;20032;-70
2023/09/07 03:06:13;;;;;;;10.18;4.57;;;18.60;99.90;;;;;;5073217;28;20052;-69
2023/09/07 03:08:43;;;;;;;7.13;4.40;;;18.60;99.90;;;;;;5073134;28;20115;-69
2023/09/07 03:11:09;;;;;;;11.65;5.28;;;18.70;99.90;;;;;;5073047;28;20041;-69
2023/09/07 03:13:35;;;;;;;7.95;4.72;;;18.70;99.90;;;;;;5073236;28;20052;-69
2023/09/07 03:16:02;;;;;;;7.38;4.30;;;18.70;99.90;;;;;;5072927;28;20021;-69
2023/09/07 03:18:28;;;;;;;6.77;4.93;;;18.70;99.90;;;;;;5073616;28;20053;-70
2023/09/07 03:20:58;;;;;;;10.27;5.13;;;18.70;99.90;;;;;;5073032;28;20343;-69
2023/09/07 03:23:24;;;;;;;7.65;4.72;;;18.70;99.90;;;;;;5073314;28;20036;-70
2023/09/07 03:25:50;;;;;;;8.07;4.55;;;18.70;99.90;;;;;;5073173;28;20348;-69
2023/09/07 03:28:15;;;;;;;11.27;5.13;;;18.80;99.90;;;;;;5072871;28;20490;-69
2023/09/07 03:30:41;;;;;;;8.75;5.00;;;18.70;99.90;;;;;;5073281;28;20033;-70
2023/09/07 03:33:07;;;;;;;10.88;5.00;;;18.60;99.90;;;;;;5071800;28;20051;-70
2023/09/07 03:35:33;;;;;;;8.45;5.03;;;18.60;99.90;;;;;;5072655;28;20044;-70
2023/09/07 03:37:58;;;;;;;14.35;5.22;;;18.60;99.90;;;;;;5072749;28;20564;-70
2023/09/07 03:40:24;;;;;;;10.05;4.90;;;18.60;99.90;;;;;;5072660;28;20039;-70
2023/09/07 03:42:50;;;;;;;14.52;6.15;;;18.50;99.90;;;;;;5072921;28;20442;-70
2023/09/07 03:45:16;;;;;;;22.45;5.78;;;18.40;99.90;;;;;;5071719;28;20025;-70
2023/09/07 03:47:42;;;;;;;9.32;5.35;;;18.40;99.90;;;;;;5072260;28;20029;-70
2023/09/07 03:50:08;;;;;;;13.63;5.65;;;18.30;99.90;;;;;;5072029;28;20029;-70
2023/09/07 03:52:34;;;;;;;13.38;5.28;;;18.30;99.90;;;;;;5072163;28;20033;-70
2023/09/07 03:55:00;;;;;;;11.43;5.35;;;18.30;99.90;;;;;;5072107;28;20136;-69
2023/09/07 03:57:27;;;;;;;15.07;5.53;;;18.30;99.90;;;;;;5072844;28;20481;-70
2023/09/07 03:59:53;;;;;;;14.10;6.32;;;18.30;99.90;;;;;;5072424;28;20146;-70
2023/09/07 04:02:19;;;;;;;12.90;5.85;;;18.30;99.90;;;;;;5072242;28;20028;-70
2023/09/07 04:04:50;;;;;;;17.85;5.35;;;18.30;99.90;;;;;;5071915;28;20102;-69
2023/09/07 04:07:16;;;;;;;11.05;5.28;;;18.20;99.90;;;;;;5071958;28;20470;-70
2023/09/07 04:09:42;;;;;;;21.70;7.57;;;18.30;99.90;;;;;;5072750;28;20028;-70
2023/09/07 04:12:08;;;;;;;19.50;5.60;;;18.20;99.90;;;;;;5071973;28;20024;-70
2023/09/07 04:14:33;;;;;;;16.88;5.80;;;18.20;99.90;;;;;;5071911;28;20039;-70
2023/09/07 04:16:59;;;;;;;13.55;6.47;;;18.10;99.90;;;;;;5071919;28;20076;-70
2023/09/07 04:19:24;;;;;;;9.90;5.63;;;18.20;99.90;;;;;;5071839;28;20386;-70
2023/09/07 04:21:51;;;;;;;10.13;6.00;;;18.20;99.90;;;;;;5072614;28;20477;-70
2023/09/07 04:24:17;;;;;;;13.35;5.53;;;18.10;99.90;;;;;;5071799;28;20117;-70
2023/09/07 04:26:43;;;;;;;9.27;5.72;;;18.10;99.90;;;;;;5071694;28;20075;-69
2023/09/07 04:29:08;;;;;;;10.52;5.47;;;18.10;99.90;;;;;;5071679;28;20037;-70
2023/09/07 04:31:34;;;;;;;10.48;5.18;;;18.10;99.90;;;;;;5071627;28;20047;-71
2023/09/07 04:34:00;;;;;;;13.82;5.80;;;18.10;99.90;;;;;;5070531;28;20125;-70
2023/09/07 04:36:26;;;;;;;13.00;5.25;;;18.00;99.90;;;;;;5071894;28;20059;-70
2023/09/07 04:38:52;;;;;;;14.70;6.55;;;18.00;99.90;;;;;;5070464;28;20021;-70
2023/09/07 04:41:20;;;;;;;24.55;6.68;;;18.00;99.90;;;;;;5071502;28;20049;-70
2023/09/07 04:43:46;;;;;;;12.60;6.00;;;17.90;99.90;;;;;;5070300;28;20109;-69
2023/09/07 04:46:13;;;;;;;20.38;6.53;;;18.00;99.90;;;;;;5071441;28;20048;-70
2023/09/07 04:48:41;;;;;;;16.58;6.50;;;18.00;99.90;;;;;;5071496;28;20111;-69
2023/09/07 04:51:08;;;;;;;14.77;7.00;;;18.00;99.90;;;;;;5071553;28;20086;-69
2023/09/07 04:53:36;;;;;;;20.13;6.13;;;18.00;99.90;;;;;;5071179;28;20033;-69
2023/09/07 04:56:06;;;;;;;13.82;6.10;;;18.00;99.90;;;;;;5071036;28;20028;-69
2023/09/07 04:58:32;;;;;;;24.08;6.93;;;17.90;99.90;;;;;;5071261;28;20425;-69
2023/09/07 05:01:09;;;;;;;19.65;6.45;;;18.00;99.90;;;;;;5070322;28;20059;-69
2023/09/07 05:03:36;;;;;;;16.55;6.35;;;18.00;99.90;;;;;;5071738;28;20027;-69
2023/09/07 05:06:04;;;;;;;11.30;6.65;;;18.00;99.90;;;;;;5071201;28;20067;-69
2023/09/07 05:08:30;;;;;;;14.07;6.70;;;17.90;99.90;;;;;;5071516;28;20059;-69
2023/09/07 05:10:57;;;;;;;17.80;6.30;;;18.00;99.90;;;;;;5070864;28;20044;-69
2023/09/07 05:13:24;;;;;;;11.65;6.45;;;17.90;99.90;;;;;;5071011;28;20032;-69
2023/09/07 05:15:50;;;;;;;14.35;6.60;;;17.80;99.90;;;;;;5071286;28;20087;-69
2023/09/07 05:18:17;;;;;;;17.30;6.72;;;17.80;99.90;;;;;;5070893;28;20033;-69
2023/09/07 05:20:44;;;;;;;15.07;6.35;;;17.70;99.90;;;;;;5070882;28;20572;-69
2023/09/07 05:23:15;;;;;;;13.25;6.97;;;17.70;99.90;;;;;;5069493;28;20048;-69
2023/09/07 05:25:51;;;;;;;14.85;6.55;;;17.80;99.90;;;;;;5070702;28;20320;-69
2023/09/07 05:28:17;;;;;;;20.75;6.82;;;17.80;99.90;;;;;;5070659;28;20036;-69
2023/09/07 05:30:43;;;;;;;18.50;8.20;;;17.80;99.90;;;;;;5071067;28;20130;-69
2023/09/07 05:33:13;;;;;;;13.00;6.15;;;17.90;99.90;;;;;;5070662;28;20051;-68
2023/09/07 05:35:39;;;;;;;18.20;6.53;;;17.90;99.90;;;;;;5070754;28;20029;-69
2023/09/07 05:38:05;;;;;;;14.25;7.50;;;17.90;99.90;;;;;;5070512;28;20032;-69
2023/09/07 05:40:39;;;;;;;18.70;7.05;;;17.90;99.90;;;;;;5070525;28;20052;-69
2023/09/07 05:43:05;;;;;;;14.73;6.85;;;17.90;99.90;;;;;;5070358;28;20024;-69
2023/09/07 05:45:31;;;;;;;11.00;6.88;;;17.90;99.90;;;;;;5071025;28;20198;-70
2023/09/07 05:47:57;;;;;;;14.65;7.07;;;17.90;99.90;;;;;;5070418;28;20055;-69
2023/09/07 05:50:23;;;;;;;15.35;6.72;;;18.00;99.90;;;;;;5069097;28;20131;-69
2023/09/07 05:52:49;;;;;;;16.52;7.45;;;18.00;99.90;;;;;;5070317;28;20025;-70
2023/09/07 05:55:14;;;;;;;12.52;6.65;;;18.10;99.90;;;;;;5069236;28;20466;-70
2023/09/07 05:57:40;;;;;;;15.98;7.28;;;18.10;99.90;;;;;;5070534;28;20465;-69
2023/09/07 06:00:06;;;;;;;10.55;6.20;;;18.20;99.90;;;;;;5070394;28;20108;-69
2023/09/07 06:02:32;;;;;;;14.27;6.63;;;18.20;99.90;;;;;;5070144;28;20032;-70
2023/09/07 06:04:58;;;;;;;15.68;6.50;;;18.30;99.90;;;;;;5069937;28;20512;-70
2023/09/07 06:07:23;;;;;;;17.60;6.85;;;18.40;99.90;;;;;;5070253;28;20496;-69
2023/09/07 06:09:49;;;;;;;11.85;6.82;;;18.40;99.90;;;;;;5069467;28;20024;-69
2023/09/07 06:12:14;;;;;;;15.43;6.75;;;18.40;99.90;;;;;;5070325;28;20440;-69
2023/09/07 06:14:40;;;;;;;18.27;7.25;;;18.50;99.90;;;;;;5074148;28;20467;-72
2023/09/07 06:17:06;;;;;;;15.90;6.68;;;18.60;99.90;;;;;;5074260;28;20340;-69
2023/09/07 06:19:31;;;;;;;20.95;7.57;;;18.60;99.90;;;;;;5074035;28;20040;-69
2023/09/07 06:21:57;;;;;;;23.83;7.00;;;18.70;99.90;;;;;;5073668;28;20035;-69
2023/09/07 06:24:22;;;;;;;13.73;6.82;;;18.70;99.90;;;;;;5074344;28;20024;-71
2023/09/07 06:26:49;;;;;;;12.82;6.82;;;18.70;99.90;;;;;;5074064;28;20407;-70
2023/09/07 06:29:15;;;;;;;15.13;6.78;;;18.80;99.90;;;;;;5074032;28;20123;-69
2023/09/07 06:31:40;;;;;;;13.07;7.03;;;18.90;99.90;;;;;;5073702;28;20454;-71
2023/09/07 06:34:06;;;;;;;19.75;8.30;;;18.90;99.90;;;;;;5073572;28;20051;-70
2023/09/07 06:36:32;;;;;;;14.23;7.63;;;19.00;99.90;;;;;;5074042;28;20028;-72
2023/09/07 06:38:58;;;;;;;12.57;6.35;;;19.00;99.90;;;;;;5072451;28;20458;-72
2023/09/07 06:41:24;;;;;;;17.50;7.18;;;19.10;99.90;;;;;;5073832;28;20033;-72
2023/09/07 06:43:50;;;;;;;13.23;5.93;;;19.10;99.90;;;;;;5073625;28;20441;-71
2023/09/07 06:46:16;;;;;;;13.93;6.65;;;19.20;99.90;;;;;;5073213;28;20037;-69
2023/09/07 06:48:42;;;;;;;17.33;7.55;;;19.30;99.90;;;;;;5072809;28;20024;-70
2023/09/07 06:51:09;;;;;;;20.23;8.43;;;19.30;99.90;;;;;;5073520;28;20480;-72
2023/09/07 06:53:35;;;;;;;15.97;7.37;;;19.40;99.90;;;;;;5073730;28;20036;-72
2023/09/07 06:56:02;;;;;;;15.05;7.60;;;19.50;99.90;;;;;;5073537;28;20356;-71
2023/09/07 06:58:28;;;;;;;19.70;6.82;;;19.50;99.90;;;;;;5073249;28;20112;-72
2023/09/07 07:01:00;;;;;;;20.15;6.85;;;19.60;99.90;;;;;;5073293;28;20354;-71
2023/09/07 07:03:28;;;;;;;16.08;6.63;;;19.60;99.90;;;;;;5073614;28;20356;-72
2023/09/07 07:05:54;;;;;;;23.00;6.85;;;19.70;99.90;;;;;;5073081;28;20052;-72
2023/09/07 07:08:19;;;;;;;23.10;8.93;;;19.70;99.90;;;;;;5073220;28;20051;-72
2023/09/07 07:10:45;;;;;;;28.95;11.70;;;19.80;99.90;;;;;;5073035;28;20462;-72
2023/09/07 07:13:11;;;;;;;16.30;8.23;;;19.90;99.90;;;;;;5073004;28;20040;-72
2023/09/07 07:15:37;;;;;;;18.67;8.48;;;20.00;99.90;;;;;;5073700;28;20027;-70
2023/09/07 07:18:08;;;;;;;23.80;8.38;;;20.00;99.90;;;;;;5073009;28;20082;-71
2023/09/07 07:20:35;;;;;;;16.83;7.20;;;20.00;99.90;;;;;;5071980;28;20106;-68
2023/09/07 07:23:01;;;;;;;18.92;7.15;;;20.10;99.90;;;;;;5073005;28;20114;-69
2023/09/07 07:25:26;;;;;;;15.45;6.70;;;20.10;99.90;;;;;;5071905;28;20499;-70
2023/09/07 07:27:52;;;;;;;22.13;8.02;;;20.20;99.90;;;;;;5072646;28;20446;-72
2023/09/07 07:30:17;;;;;;;21.65;6.95;;;20.20;99.90;;;;;;5072242;28;20020;-71
2023/09/07 07:32:43;;;;;;;17.67;6.78;;;20.30;99.90;;;;;;5071909;28;20033;-69
2023/09/07 07:35:09;;;;;;;13.68;6.57;;;20.40;99.90;;;;;;5072538;28;20025;-68
2023/09/07 07:37:34;;;;;;;11.82;5.90;;;20.50;99.90;;;;;;5072708;28;20098;-68
2023/09/07 07:40:00;;;;;;;15.70;5.85;;;20.50;99.90;;;;;;5072965;28;20033;-70
2023/09/07 07:42:25;;;;;;;21.48;6.78;;;20.60;99.90;;;;;;5072096;28;20111;-70
2023/09/07 07:44:51;;;;;;;16.83;7.47;;;20.70;99.90;;;;;;5072781;28;20536;-70
2023/09/07 07:47:17;;;;;;;20.00;6.68;;;20.70;99.90;;;;;;5072578;28;20064;-68
2023/09/07 07:49:42;;;;;;;16.70;7.30;;;20.80;99.90;;;;;;5072303;28;20127;-69
2023/09/07 07:52:08;;;;;;;17.05;7.30;;;20.90;99.90;;;;;;5072054;28;20039;-70
2023/09/07 07:54:34;;;;;;;14.80;6.88;;;20.90;99.90;;;;;;5072760;28;20419;-68
2023/09/07 07:57:00;;;;;;;21.80;6.78;;;21.00;99.90;;;;;;5072127;28;20082;-69
2023/09/07 07:59:26;;;;;;;15.70;5.30;;;21.10;99.90;;;;;;5072132;28;20482;-73
2023/09/07 08:01:51;;;;;;;14.52;5.55;;;21.10;99.90;;;;;;5072062;28;20082;-73
2023/09/07 08:04:17;;;;;;;10.90;5.43;;;21.20;99.90;;;;;;5072152;28;20040;-71
2023/09/07 08:06:43;;;;;;;23.98;5.97;;;21.30;99.90;;;;;;5072306;28;20498;-71
2023/09/07 08:09:09;;;;;;;15.70;6.18;;;21.40;99.80;;;;;;5072225;28;20043;-71
2023/09/07 08:11:36;;;;;;;18.38;6.00;;;21.50;99.30;;;;;;5071260;28;20068;-71
2023/09/07 08:14:02;;;;;;;21.08;6.22;;;21.60;99.30;;;;;;5072149;28;20039;-70
2023/09/07 08:16:27;;;;;;;19.08;6.45;;;21.70;99.30;;;;;;5071996;28;20032;-72
2023/09/07 08:18:53;;;;;;;12.95;6.05;;;21.90;99.40;;;;;;5071948;28;20028;-71
2023/09/07 08:21:19;;;;;;;13.40;5.65;;;22.00;99.40;;;;;;5072369;28;20032;-71
2023/09/07 08:23:44;;;;;;;13.10;5.40;;;22.30;99.50;;;;;;5071702;28;20056;-71
2023/09/07 08:26:10;;;;;;;17.40;6.38;;;22.70;99.20;;;;;;5070767;28;20474;-70
2023/09/07 08:28:35;;;;;;;16.50;5.50;;;23.20;99.00;;;;;;5071752;28;20374;-70
2023/09/07 08:31:01;;;;;;;30.73;6.78;;;23.90;97.80;;;;;;5071591;28;20024;-71
2023/09/07 08:33:32;;;;;;;13.43;5.30;;;25.30;98.10;;;;;;5072015;28;20482;-71
2023/09/07 08:36:00;;;;;;;9.88;4.50;;;26.90;95.90;;;;;;5071282;28;20471;-71
2023/09/07 08:38:27;;;;;;;17.92;6.63;;;28.50;94.10;;;;;;5071589;28;20062;-71
2023/09/07 08:41:01;;;;;;;7.68;4.57;;;29.80;91.70;;;;;;5071677;28;20063;-72
2023/09/07 08:43:28;;;;;;;10.45;4.30;;;31.10;89.50;;;;;;5070151;28;20056;-71
2023/09/07 08:46:20;;;;;;;7.78;4.30;;;31.30;86.90;;;;;;5070642;28;20592;-71
2023/09/07 08:48:47;;;;;;;11.95;4.05;;;32.70;80.30;;;;;;5066879;28;20040;-72
2023/09/07 08:51:15;;;;;;;21.10;7.03;;;33.90;79.70;;;;;;5071241;28;20107;-74
2023/09/07 08:53:42;;;;;;;10.95;4.40;;;35.00;75.70;;;;;;5071230;28;20028;-73
2023/09/07 08:56:10;;;;;;;14.57;7.68;;;35.60;71.80;;;;;;5071275;28;20036;-74
2023/09/07 08:58:36;;;;;;;20.00;7.20;;;36.00;68.20;;;;;;5071289;28;20029;-73
2023/09/07 09:01:03;;;;;;;6.78;4.10;;;35.90;66.90;;;;;;5070043;28;20023;-71
2023/09/07 09:03:30;;;;;;;12.95;4.47;;;36.80;64.80;;;;;;5070931;28;20391;-72
2023/09/07 09:05:56;;;;;;;12.23;4.78;;;36.90;65.80;;;;;;5069854;28;20060;-72
2023/09/07 09:08:24;;;;;;;6.20;4.10;;;38.10;63.00;;;;;;5070911;28;20129;-70
2023/09/07 09:11:00;;;;;;;9.95;4.28;;;39.00;59.80;;;;;;5071134;28;20055;-77
2023/09/07 09:13:32;;;;;;;10.77;4.45;;;39.30;58.00;;;;;;5069999;28;20041;-71
2023/09/07 09:16:01;;;;;;;10.13;4.38;;;39.90;56.40;;;;;;5053204;28;20028;-71
2023/09/07 09:18:27;;;;;;;16.38;6.30;;;40.00;55.60;;;;;;5071213;28;20027;-70
2023/09/07 09:20:55;;;;;;;11.55;5.20;;;40.20;53.60;;;;;;5069618;28;20477;-72
2023/09/07 09:23:20;;;;;;;10.43;4.25;;;40.50;52.20;;;;;;5070760;28;20467;-75
2023/09/07 09:25:48;;;;;;;7.28;3.80;;;40.50;51.10;;;;;;5070481;28;20043;-73
2023/09/07 09:28:14;;;;;;;12.50;4.15;;;40.70;51.70;;;;;;5070652;28;20036;-75
2023/09/07 09:30:43;;;;;;;9.45;5.43;;;41.30;49.40;;;;;;5071067;28;20039;-74
2023/09/07 09:33:10;;;;;;;11.32;4.85;;;40.70;49.70;;;;;;5070533;28;20033;-74
2023/09/07 09:35:38;;;;;;;;;;;41.20;49.60;;;;;;5071240;28;20037;-75
2023/09/07 09:38:04;;;;;;;12.85;4.50;;;41.80;48.40;;;;;;5070528;28;19948;-74
2023/09/07 09:40:36;;;;;;;13.13;4.80;;;41.50;47.90;;;;;;5070317;28;20254;-72
2023/09/07 09:43:05;;;;;;;7.22;4.10;;;42.00;47.50;;;;;;5069291;28;20447;-74
2023/09/07 09:45:31;;;;;;;8.98;4.30;;;41.70;47.20;;;;;;5071288;28;20017;-75
2023/09/07 09:47:59;;;;;;;8.75;4.60;;;42.70;46.60;;;;;;5071655;28;20060;-76
2023/09/07 09:50:25;;;;;;;8.25;4.18;;;42.60;46.00;;;;;;5073470;28;20111;-77
2023/09/07 09:52:53;;;;;;;11.20;4.57;;;43.00;45.50;;;;;;5075009;28;20055;-79
2023/09/07 09:55:19;;;;;;;8.57;4.43;;;43.00;45.30;;;;;;5074686;28;20119;-78
2023/09/07 09:57:45;;;;;;;12.48;4.03;;;43.50;44.60;;;;;;5074295;28;20027;-80
2023/09/07 10:02:45;;;;;;;5.57;4.57;;;43.50;42.70;;;;;;5074681;28;20033;-79
2023/09/07 10:05:13;;;;;;;9.52;4.75;;;43.70;43.10;;;;;;5073141;28;20056;-73
2023/09/07 10:07:43;;;;;;;11.73;4.70;;;44.10;42.60;;;;;;5074171;28;20232;-71
2023/09/07 10:10:12;;;;;;;14.02;4.30;;;44.40;41.70;;;;;;5074552;28;20028;-72
2023/09/07 10:12:42;;;;;;;9.00;4.32;;;44.20;42.00;;;;;;5073327;28;20025;-74
2023/09/07 10:15:20;;;;;;;8.45;4.50;;;44.00;41.40;;;;;;5074163;28;20370;-71
2023/09/07 10:17:49;;;;;;;7.45;4.40;;;43.40;40.80;;;;;;5073506;28;20040;-71
2023/09/07 10:20:17;;;;;;;11.30;4.15;;;43.20;41.50;;;;;;5074449;28;20553;-70
2023/09/07 10:22:42;;;;;;;10.02;4.15;;;43.90;40.60;;;;;;5074360;28;20087;-70
2023/09/07 10:25:22;;;;;;;9.10;4.65;;;43.50;40.70;;;;;;5074379;28;20029;-69
2023/09/07 10:27:48;;;;;;;6.15;3.88;;;42.80;41.50;;;;;;5074403;28;20020;-70
2023/09/07 10:30:19;;;;;;;7.90;4.10;;;42.90;41.00;;;;;;5074189;28;20059;-69
2023/09/07 10:32:45;;;;;;;7.82;4.13;;;42.30;41.60;;;;;;5074304;28;20029;-70
2023/09/07 10:35:21;;;;;;;7.10;3.83;;;43.40;41.90;;;;;;5074261;28;20414;-69
2023/09/07 10:37:47;;;;;;;7.20;4.28;;;43.50;39.80;;;;;;5074251;28;20024;-69
2023/09/07 10:40:18;;;;;;;7.20;3.70;;;43.10;40.90;;;;;;5074250;28;20025;-69
2023/09/07 10:42:44;;;;;;;6.43;3.90;;;43.00;40.30;;;;;;5074478;28;20347;-69
2023/09/07 10:45:12;;;;;;;7.27;3.90;;;43.70;40.40;;;;;;5074127;28;20108;-70
2023/09/07 10:47:42;;;;;;;9.57;5.00;;;44.00;39.50;;;;;;5073857;28;20374;-69
2023/09/07 10:50:10;;;;;;;7.45;3.78;;;43.80;40.50;;;;;;5073853;28;20062;-70
2023/09/07 10:52:36;;;;;;;6.30;3.88;;;44.50;38.00;;;;;;5074041;28;20052;-70
2023/09/07 10:55:01;;;;;;;4.85;3.80;;;42.90;39.00;;;;;;5073564;28;20029;-69
2023/09/07 10:57:27;;;;;;;4.95;3.53;;;42.50;40.00;;;;;;5073909;28;20106;-70
2023/09/07 10:59:55;;;;;;;5.47;4.28;;;43.00;40.00;;;;;;5073267;28;20302;-70
2023/09/07 11:02:20;;;;;;;7.72;4.47;;;43.60;39.20;;;;;;5073273;28;20056;-69
2023/09/07 11:04:46;;;;;;;13.25;4.88;;;43.80;38.50;;;;;;5073178;28;20040;-70
2023/09/07 11:07:12;;;;;;;7.20;4.35;;;42.50;39.30;;;;;;5073517;28;20040;-69
2023/09/07 11:09:42;;;;;;;8.07;3.77;;;42.60;39.10;;;;;;5073968;28;20370;-71
2023/09/07 11:12:08;;;;;;;6.20;4.20;;;42.10;38.80;;;;;;5072355;28;20254;-69
2023/09/07 11:14:34;;;;;;;5.70;3.85;;;41.70;39.90;;;;;;5073243;28;20032;-68
2023/09/07 11:17:03;;;;;;;7.28;4.40;;;41.40;40.20;;;;;;5073394;28;20039;-71
2023/09/07 11:19:33;;;;;;;6.75;5.43;;;40.90;40.80;;;;;;5071652;28;20032;-70
2023/09/07 11:21:58;;;;;;;8.68;5.28;;;40.30;41.40;;;;;;5072776;28;20030;-69
2023/09/07 11:24:25;;;;;;;10.20;5.63;;;40.20;41.00;;;;;;5073439;28;20017;-71
2023/09/07 11:26:51;;;;;;;;;;;39.40;41.50;;;;;;5073344;28;20086;-71
2023/09/07 11:29:18;;;;;;;8.53;4.93;;;39.40;41.80;;;;;;5072987;28;19912;-70
2023/09/07 11:31:46;;;;;;;12.10;4.05;;;38.80;42.30;;;;;;5072582;28;20121;-72
2023/09/07 11:34:13;;;;;;;11.27;7.22;;;38.20;42.90;;;;;;5072696;28;20450;-71
2023/09/07 11:36:46;;;;;;;9.50;5.10;;;37.30;44.20;;;;;;5073148;28;20051;-69
2023/09/07 11:39:14;;;;;;;6.45;3.45;;;36.80;45.30;;;;;;5072401;28;20029;-70
2023/09/07 11:41:44;;;;;;;14.18;4.95;;;36.20;45.50;;;;;;5071736;28;20497;-70
2023/09/07 11:44:11;;;;;;;6.90;3.75;;;35.40;46.30;;;;;;5072636;28;20056;-71
2023/09/07 11:46:37;;;;;;;6.97;3.90;;;35.20;46.70;;;;;;5072592;28;20098;-72
2023/09/07 11:49:04;;;;;;;7.07;4.30;;;35.00;47.10;;;;;;5072312;28;20052;-70
2023/09/07 11:51:30;;;;;;;;;;;34.80;47.30;;;;;;5073358;28;20013;-68
2023/09/07 11:53:56;;;;;;;10.40;3.90;;;34.20;48.50;;;;;;5072463;28;19912;-71
2023/09/07 11:56:22;;;;;;;7.28;4.15;;;33.90;49.50;;;;;;5072574;28;20365;-70
2023/09/07 11:58:47;;;;;;;5.80;4.10;;;33.90;49.30;;;;;;5071258;28;20094;-71
2023/09/07 12:01:16;;;;;;;7.93;4.05;;;33.70;49.60;;;;;;5072457;28;20028;-71
2023/09/07 12:03:43;;;;;;;7.82;3.58;;;33.50;49.90;;;;;;5072668;28;20112;-71
2023/09/07 12:06:09;;;;;;;7.27;3.83;;;33.40;50.00;;;;;;5071752;28;20414;-70
2023/09/07 12:08:35;;;;;;;8.43;3.78;;;33.10;50.40;;;;;;5072053;28;20289;-71
2023/09/07 12:11:01;;;;;;;6.45;4.05;;;33.00;50.60;;;;;;5071452;28;20485;-71
2023/09/07 12:13:26;;;;;;;7.32;3.83;;;32.70;51.60;;;;;;5071103;28;20116;-72
2023/09/07 12:15:52;;;;;;;6.30;3.88;;;32.50;52.40;;;;;;5072550;28;20016;-70
2023/09/07 12:18:18;;;;;;;4.97;3.47;;;32.30;52.50;;;;;;5072333;28;20089;-71
2023/09/07 12:20:44;;;;;;;9.45;4.22;;;32.30;52.20;;;;;;5071951;28;20056;-70
2023/09/07 12:23:10;;;;;;;5.97;4.10;;;32.10;53.10;;;;;;5070551;28;20024;-70
2023/09/07 12:25:36;;;;;;;5.10;3.70;;;32.20;52.90;;;;;;5071906;28;20355;-69
2023/09/07 12:28:03;;;;;;;8.52;4.43;;;32.30;53.30;;;;;;5071515;28;20091;-70
2023/09/07 12:30:29;;;;;;;5.88;4.00;;;32.30;52.60;;;;;;5072042;28;20028;-69
2023/09/07 12:32:54;;;;;;;7.30;3.85;;;32.20;53.00;;;;;;5071407;28;20025;-70
2023/09/07 12:35:20;;;;;;;4.68;3.63;;;32.20;52.70;;;;;;5070521;28;20064;-71
2023/09/07 12:37:46;;;;;;;6.47;4.35;;;32.20;53.10;;;;;;5070306;28;20063;-71
2023/09/07 12:40:12;;;;;;;10.63;3.97;;;32.20;53.40;;;;;;5071751;28;20055;-70
2023/09/07 12:42:44;;;;;;;7.82;3.85;;;31.90;53.10;;;;;;5071836;28;20514;-70
2023/09/07 12:45:14;;;;;;;8.43;4.60;;;31.90;53.30;;;;;;5071369;28;20090;-71